Time;durP1;ratioP1;P1;durP2;ratioP2;P2;SDS_P1;SDS_P2;PMS_P1;PMS_P2;Temp;Humidity;BMP_temperature;BMP_pressure;BME280_temperature;BME280_humidity;BME280_pressure;Samples;Min_cycle;Max_cycle;Signal;HPM_P1;HPM_P2
2023/12/20 00:02:02;;;;;;;7.28;2.47;;;;;;;5.25;78.33;100541.44;4966545;28;20534;-46
2023/12/20 00:04:29;;;;;;;5.75;1.25;;;;;;;5.21;77.86;100534.50;4964950;28;20066;-55
2023/12/20 00:06:56;;;;;;;4.03;2.00;;;;;;;5.22;78.13;100525.94;4970927;28;20130;-50
2023/12/20 00:09:23;;;;;;;7.15;3.00;;;;;;;5.18;78.34;100529.25;4971181;28;20039;-48
2023/12/20 00:11:49;;;;;;;4.32;0.82;;;;;;;5.10;78.34;100532.50;4968326;28;20444;-47
2023/12/20 00:14:18;;;;;;;9.80;4.47;;;;;;;5.13;78.17;100517.19;4966930;28;20077;-47
2023/12/20 00:16:45;;;;;;;10.23;1.40;;;;;;;5.11;78.29;100521.41;4971914;28;20420;-46
2023/12/20 00:19:11;;;;;;;7.10;2.35;;;;;;;5.09;78.10;100515.34;4973471;28;20046;-47
2023/12/20 00:21:38;;;;;;;6.60;4.45;;;;;;;5.08;78.97;100516.19;4971543;28;20051;-49
2023/12/20 00:24:06;;;;;;;6.65;2.70;;;;;;;5.09;77.84;100515.34;4969120;28;20055;-51
2023/12/20 00:26:33;;;;;;;5.95;2.35;;;;;;;5.04;79.39;100509.22;4969865;28;20536;-49
2023/12/20 00:29:00;;;;;;;10.18;2.78;;;;;;;5.01;78.76;100501.44;4968948;28;20043;-45
2023/12/20 00:31:27;;;;;;;4.95;2.45;;;;;;;5.04;77.99;100511.81;4974736;28;20047;-43
2023/12/20 00:33:54;;;;;;;4.70;2.55;;;;;;;4.98;78.23;100511.63;4972107;28;20113;-44
2023/12/20 00:36:21;;;;;;;3.25;2.25;;;;;;;5.04;79.06;100501.53;4970650;28;20055;-49
2023/12/20 00:38:48;;;;;;;2.85;2.40;;;;;;;5.01;78.11;100499.72;4970131;28;20054;-47
2023/12/20 00:41:16;;;;;;;7.72;2.50;;;;;;;5.01;78.73;100502.28;4966797;28;20054;-47
2023/12/20 00:43:42;;;;;;;8.50;1.80;;;;;;;5.00;79.03;100489.44;4972200;28;20444;-46
2023/12/20 00:46:09;;;;;;;6.53;2.83;;;;;;;5.00;79.04;100495.44;4971356;28;20051;-50
2023/12/20 00:48:36;;;;;;;11.40;5.30;;;;;;;5.05;78.67;100486.97;4969129;28;20047;-43
2023/12/20 00:51:03;;;;;;;12.02;3.42;;;;;;;5.00;77.90;100484.31;4964687;28;20043;-47
2023/12/20 00:53:30;;;;;;;6.63;1.83;;;;;;;4.99;77.97;100493.69;4966423;28;20424;-45
2023/12/20 00:55:58;;;;;;;3.13;2.33;;;;;;;4.95;78.72;100496.13;4971222;28;20046;-44
2023/12/20 00:58:26;;;;;;;6.72;2.53;;;;;;;4.99;78.97;100488.56;4966287;28;20055;-48
2023/12/20 01:00:53;;;;;;;4.78;2.38;;;;;;;5.00;78.78;100489.44;4970871;28;20069;-45
2023/12/20 01:03:20;;;;;;;11.80;4.15;;;;;;;5.05;79.03;100500.69;4969909;28;20577;-42
2023/12/20 01:05:47;;;;;;;11.82;1.60;;;;;;;5.03;78.23;100499.75;4969632;28;20482;-44
2023/12/20 01:08:15;;;;;;;7.35;2.83;;;;;;;5.01;78.43;100494.59;4971441;28;20050;-44
2023/12/20 01:10:43;;;;;;;8.35;3.28;;;;;;;5.03;77.97;100489.50;4963301;28;20051;-46
2023/12/20 01:13:09;;;;;;;7.60;3.30;;;;;;;5.07;78.84;100493.88;4966125;28;20508;-46
2023/12/20 01:15:38;;;;;;;15.10;2.90;;;;;;;5.00;78.16;100486.88;4970820;28;20057;-46
2023/12/20 01:18:05;;;;;;;11.75;2.95;;;;;;;5.03;78.29;100493.78;4964572;28;20059;-45
2023/12/20 01:20:32;;;;;;;8.70;3.17;;;;;;;5.01;78.50;100486.03;4969121;28;20046;-49
2023/12/20 01:22:59;;;;;;;9.23;3.35;;;;;;;5.06;78.66;100469.03;4971252;28;20049;-53
2023/12/20 01:25:25;;;;;;;6.28;2.67;;;;;;;5.02;78.62;100469.78;4972145;28;20062;-47
2023/12/20 01:27:52;;;;;;;3.80;2.22;;;;;;;4.98;78.28;100480.81;4974604;28;20100;-50
2023/12/20 01:30:20;;;;;;;6.47;2.58;;;;;;;5.07;77.97;100485.34;4972902;28;20053;-45
2023/12/20 01:32:47;;;;;;;7.35;2.58;;;;;;;5.16;78.51;100477.00;4972100;28;20050;-43
2023/12/20 01:35:14;;;;;;;4.90;2.38;;;;;;;5.16;78.78;100483.00;4972355;28;20054;-46
2023/12/20 01:37:41;;;;;;;6.68;1.30;;;;;;;5.17;78.67;100476.16;4973536;28;20424;-48
2023/12/20 01:40:09;;;;;;;6.75;2.92;;;;;;;5.14;78.64;100479.53;4974885;28;20058;-46
2023/12/20 01:42:35;;;;;;;2.22;1.10;;;;;;;5.15;77.88;100481.25;4972780;28;20481;-52
2023/12/20 01:45:02;;;;;;;4.50;2.95;;;;;;;5.16;78.31;100489.84;4970072;28;20053;-44
2023/12/20 01:47:29;;;;;;;6.25;2.30;;;;;;;5.16;78.25;100477.00;4972816;28;20097;-51
2023/12/20 01:49:56;;;;;;;4.85;2.03;;;;;;;5.12;77.57;100476.94;4971545;28;20137;-46
2023/12/20 01:52:25;;;;;;;6.60;2.65;;;;;;;5.13;78.17;100473.53;4968890;28;20045;-43
2023/12/20 01:54:54;;;;;;;2.97;2.40;;;;;;;5.20;78.75;100478.84;4973818;28;20065;-41
2023/12/20 01:57:21;;;;;;;5.00;2.38;;;;;;;5.22;77.74;100484.84;4973209;28;20060;-46
2023/12/20 01:59:48;;;;;;;5.43;2.63;;;;;;;5.23;78.61;100476.31;4973191;28;20069;-46
2023/12/20 02:02:15;;;;;;;4.55;2.45;;;;;;;5.28;77.85;100482.47;4974168;28;20055;-47
2023/12/20 02:04:41;;;;;;;9.60;0.90;;;;;;;5.31;78.88;100484.25;4971340;28;21049;-43
2023/12/20 02:07:09;;;;;;;3.95;2.63;;;;;;;5.34;78.74;100490.31;4972259;28;20050;-50
2023/12/20 02:09:37;;;;;;;2.35;1.98;;;;;;;5.32;78.12;100488.53;4973218;28;20059;-46
2023/12/20 02:12:05;;;;;;;3.95;2.05;;;;;;;5.35;77.63;100492.06;4973317;28;20046;-45
2023/12/20 02:14:33;;;;;;;4.60;3.05;;;;;;;5.39;77.63;100481.03;4975384;28;20051;-48
2023/12/20 02:17:00;;;;;;;5.45;2.25;;;;;;;5.40;78.00;100482.78;4969346;28;20197;-47
2023/12/20 02:19:26;;;;;;;4.90;1.83;;;;;;;5.43;78.30;100483.69;4971452;28;20077;-44
2023/12/20 02:22:11;;;;;;;5.60;2.25;;;;;;;5.40;78.08;100485.34;4970718;28;20504;-49
2023/12/20 02:24:38;;;;;;;7.22;2.30;;;;;;;5.43;77.99;100479.41;4973518;28;20050;-48
2023/12/20 02:27:07;;;;;;;8.30;2.35;;;;;;;5.46;78.13;100476.91;4972601;28;20051;-48
2023/12/20 02:29:34;;;;;;;2.00;1.67;;;;;;;5.46;78.26;100473.47;4966861;28;20117;-49
2023/12/20 02:32:02;;;;;;;5.20;2.28;;;;;;;5.49;78.00;100483.84;4971964;28;20564;-44
2023/12/20 02:34:29;;;;;;;8.77;2.53;;;;;;;5.51;78.48;100479.63;4956729;28;20042;-52
2023/12/20 02:36:57;;;;;;;6.15;2.63;;;;;;;5.53;78.91;100485.66;4972421;28;20057;-51
2023/12/20 02:39:24;;;;;;;5.50;1.88;;;;;;;5.59;78.10;100480.66;4972682;28;20137;-50
2023/12/20 02:41:53;;;;;;;7.78;2.05;;;;;;;5.61;78.50;100484.13;4971775;28;20046;-47
2023/12/20 02:44:20;;;;;;;7.03;3.33;;;;;;;5.65;77.74;100485.09;4971451;28;20058;-45
2023/12/20 02:46:47;;;;;;;8.25;2.15;;;;;;;5.66;77.68;100487.69;4966978;28;20080;-43
2023/12/20 02:49:13;;;;;;;4.07;2.15;;;;;;;5.69;77.32;100488.59;4973317;28;20120;-46
2023/12/20 02:51:40;;;;;;;3.50;1.98;;;;;;;5.68;78.46;100497.16;4967746;28;20085;-44
2023/12/20 02:54:07;;;;;;;6.38;2.10;;;;;;;5.70;78.65;100487.75;4973986;28;20054;-48
2023/12/20 02:56:33;;;;;;;3.25;1.60;;;;;;;5.71;78.75;100489.50;4972799;28;20069;-46
2023/12/20 02:59:01;;;;;;;6.45;0.80;;;;;;;5.73;77.23;100492.97;4969309;28;20393;-49
2023/12/20 03:01:29;;;;;;;4.50;2.42;;;;;;;5.72;77.37;100497.25;4969484;28;20043;-46
2023/12/20 03:03:56;;;;;;;5.97;3.75;;;;;;;5.76;77.89;100498.19;4958953;28;20047;-45
2023/12/20 03:06:24;;;;;;;6.68;2.47;;;;;;;5.77;78.73;100499.94;4966807;28;20058;-47
2023/12/20 03:08:52;;;;;;;5.05;2.05;;;;;;;5.79;78.03;100503.41;4967805;28;20042;-52
2023/12/20 03:11:19;;;;;;;6.82;2.28;;;;;;;5.82;77.97;100503.50;4962981;28;20085;-49
2023/12/20 03:13:45;;;;;;;6.55;2.15;;;;;;;5.79;78.85;100504.28;4966668;28;20055;-49
2023/12/20 03:16:13;;;;;;;4.97;1.92;;;;;;;5.82;78.58;100482.06;4967603;28;20051;-43
2023/12/20 03:18:40;;;;;;;7.03;2.30;;;;;;;5.85;77.23;100483.00;4961795;28;20055;-46
2023/12/20 03:21:07;;;;;;;3.25;1.65;;;;;;;5.87;77.88;100489.03;4967519;28;20074;-48
2023/12/20 03:23:35;;;;;;;5.75;2.15;;;;;;;5.90;77.53;100486.56;4961846;28;20051;-45
2023/12/20 03:26:02;;;;;;;7.60;3.30;;;;;;;5.90;77.69;100480.53;4966477;28;20496;-41
2023/12/20 03:28:30;;;;;;;5.88;1.90;;;;;;;5.91;77.44;100467.72;4961506;28;20051;-47
2023/12/20 03:30:57;;;;;;;4.65;2.03;;;;;;;5.94;77.98;100471.19;4968426;28;20046;-45
2023/12/20 03:33:23;;;;;;;5.78;1.80;;;;;;;5.97;78.39;100460.97;4969472;28;20054;-48
2023/12/20 03:35:50;;;;;;;5.45;0.57;;;;;;;5.98;78.08;100458.44;4969391;28;20412;-48
2023/12/20 03:38:17;;;;;;;5.45;2.28;;;;;;;6.01;77.23;100457.66;4961835;28;20051;-47
2023/12/20 03:40:44;;;;;;;6.43;2.58;;;;;;;6.02;79.09;100451.66;4964170;28;20051;-43
2023/12/20 03:43:10;;;;;;;4.45;2.03;;;;;;;6.03;78.98;100445.69;4964518;28;20050;-48
2023/12/20 03:45:37;;;;;;;6.65;2.08;;;;;;;6.05;78.52;100438.91;4963853;28;20082;-44
2023/12/20 03:48:04;;;;;;;9.70;2.35;;;;;;;6.06;78.68;100435.50;4965014;28;20042;-44
2023/12/20 03:50:31;;;;;;;3.20;2.67;;;;;;;6.07;78.43;100432.09;4965972;28;20046;-49
2023/12/20 03:52:58;;;;;;;4.93;1.75;;;;;;;6.10;77.74;100431.28;4967234;28;20129;-52
2023/12/20 03:55:24;;;;;;;4.97;0.95;;;;;;;6.08;78.21;100438.97;4967302;28;20467;-51
2023/12/20 03:57:51;;;;;;;7.65;1.90;;;;;;;6.10;78.30;100432.16;4964681;28;20046;-46
2023/12/20 04:00:18;;;;;;;5.90;2.22;;;;;;;6.12;78.83;100438.19;4966293;28;20050;-50
2023/12/20 04:02:45;;;;;;;2.47;1.83;;;;;;;6.15;77.76;100430.53;4968668;28;20114;-44
2023/12/20 04:05:13;;;;;;;6.18;2.65;;;;;;;6.14;78.13;100444.25;4961910;28;20496;-45
2023/12/20 04:07:40;;;;;;;6.55;1.55;;;;;;;6.13;77.94;100427.09;4956936;28;20066;-54
2023/12/20 04:10:08;;;;;;;6.32;2.08;;;;;;;6.13;77.54;100427.09;4968247;28;20586;-53
2023/12/20 04:12:34;;;;;;;5.93;0.65;;;;;;;6.12;77.32;100425.34;4966064;28;20394;-52
2023/12/20 04:15:03;;;;;;;5.10;2.58;;;;;;;6.16;78.07;100427.16;4967154;28;20054;-46
2023/12/20 04:17:29;;;;;;;4.95;2.53;;;;;;;6.12;78.44;100415.03;4959618;28;20051;-46
2023/12/20 04:19:56;;;;;;;6.07;1.42;;;;;;;6.19;77.21;100415.19;4959419;28;20449;-45
2023/12/20 04:22:23;;;;;;;6.18;3.05;;;;;;;6.19;78.19;100415.19;4964358;28;20043;-45
2023/12/20 04:24:50;;;;;;;4.05;2.17;;;;;;;6.19;78.32;100421.22;4961502;28;20058;-50
2023/12/20 04:27:17;;;;;;;2.85;0.57;;;;;;;6.17;78.13;100426.31;4964529;28;20542;-49
2023/12/20 04:29:45;;;;;;;5.82;2.22;;;;;;;6.21;78.89;100437.53;4964874;28;20497;-45
2023/12/20 04:32:11;;;;;;;7.30;1.90;;;;;;;6.24;77.86;100431.56;4967926;28;20511;-45
2023/12/20 04:34:39;;;;;;;6.85;2.38;;;;;;;6.27;77.35;100426.50;4966637;28;20046;-45
2023/12/20 04:37:05;;;;;;;4.45;3.03;;;;;;;6.27;77.39;100429.06;4967962;28;20133;-48
2023/12/20 04:39:33;;;;;;;6.85;2.42;;;;;;;6.27;77.45;100431.66;4966825;28;20050;-49
2023/12/20 04:42:00;;;;;;;5.53;2.05;;;;;;;6.29;78.11;100414.56;4965469;28;20058;-50
2023/12/20 04:44:26;;;;;;;7.22;2.58;;;;;;;6.30;77.41;100424.88;4966494;28;20043;-47
2023/12/20 04:46:53;;;;;;;2.90;2.70;;;;;;;6.30;78.13;100413.72;4962177;28;20055;-50
2023/12/20 04:49:19;;;;;;;7.00;2.10;;;;;;;6.32;78.87;100412.06;4967670;28;20050;-48
2023/12/20 04:51:46;;;;;;;7.32;2.63;;;;;;;6.34;77.17;100399.19;4972177;28;20601;-52
2023/12/20 04:54:13;;;;;;;3.83;2.35;;;;;;;6.31;78.60;100400.00;4966380;28;20165;-47
2023/12/20 04:56:40;;;;;;;6.50;2.30;;;;;;;6.31;79.24;100405.16;4973113;28;20057;-45
2023/12/20 04:59:07;;;;;;;4.70;2.55;;;;;;;6.35;79.06;100400.94;4966544;28;20043;-47
2023/12/20 05:01:34;;;;;;;3.85;2.33;;;;;;;6.39;77.78;100389.88;4965259;28;20065;-47
2023/12/20 05:04:04;;;;;;;6.93;2.63;;;;;;;6.40;77.72;100384.75;4964794;28;20061;-49
2023/12/20 05:06:30;;;;;;;2.70;1.88;;;;;;;6.31;77.93;100382.00;4971234;28;20054;-45
2023/12/20 05:08:57;;;;;;;5.40;1.95;;;;;;;6.36;78.53;100382.97;4972596;28;20063;-44
2023/12/20 05:11:25;;;;;;;5.82;2.55;;;;;;;6.41;77.42;100394.22;4972001;28;20054;-44
2023/12/20 05:13:53;;;;;;;6.72;2.92;;;;;;;6.40;77.25;100392.50;4971081;28;20492;-45
2023/12/20 05:16:20;;;;;;;6.80;2.40;;;;;;;6.41;78.81;100389.06;4966867;28;20047;-50
2023/12/20 05:18:49;;;;;;;6.22;2.08;;;;;;;6.39;78.67;100390.72;4967727;28;20509;-45
2023/12/20 05:21:16;;;;;;;3.25;2.17;;;;;;;6.40;77.88;100389.91;4969144;28;20052;-46
2023/12/20 05:23:43;;;;;;;2.80;1.92;;;;;;;6.42;78.86;100393.38;4972447;28;20049;-48
2023/12/20 05:26:09;;;;;;;8.05;1.95;;;;;;;6.42;78.10;100372.78;4970498;28;20053;-46
2023/12/20 05:28:37;;;;;;;6.00;2.03;;;;;;;6.48;77.72;100371.19;4969269;28;20059;-42
2023/12/20 05:31:03;;;;;;;4.57;0.50;;;;;;;6.45;78.65;100381.41;4968357;28;20420;-45
2023/12/20 05:33:30;;;;;;;2.97;1.92;;;;;;;6.48;77.17;100384.06;4963989;28;20055;-44
2023/12/20 05:35:57;;;;;;;6.03;2.67;;;;;;;6.48;78.07;100386.63;4971050;28;20047;-45
2023/12/20 05:38:24;;;;;;;5.82;2.08;;;;;;;6.48;77.87;100386.63;4967012;28;20053;-46
2023/12/20 05:40:51;;;;;;;3.55;2.22;;;;;;;6.51;77.58;100384.09;4967698;28;20122;-51
2023/12/20 05:43:17;;;;;;;6.38;1.92;;;;;;;6.52;77.53;100383.28;4966259;28;20052;-46
2023/12/20 05:45:45;;;;;;;8.85;1.63;;;;;;;6.50;78.70;100374.66;4962961;28;20480;-51
2023/12/20 05:48:12;;;;;;;11.95;2.17;;;;;;;6.52;78.86;100378.13;4969676;28;20134;-47
2023/12/20 05:50:39;;;;;;;5.55;2.63;;;;;;;6.51;78.26;100384.09;4963240;28;20057;-47
2023/12/20 05:53:05;;;;;;;7.55;1.63;;;;;;;6.52;78.06;100378.97;4967562;28;20052;-46
2023/12/20 05:55:32;;;;;;;8.50;2.50;;;;;;;6.54;79.02;100381.59;4969443;28;20082;-49
2023/12/20 05:57:59;;;;;;;2.40;2.00;;;;;;;6.53;78.27;100374.72;4966665;28;20054;-48
2023/12/20 06:00:27;;;;;;;6.93;2.22;;;;;;;6.54;78.32;100377.31;4961268;28;20038;-45
2023/12/20 06:02:54;;;;;;;6.82;2.03;;;;;;;6.54;78.29;100371.28;4970356;28;20050;-48
2023/12/20 06:05:22;;;;;;;8.10;2.00;;;;;;;6.52;78.25;100368.69;4969823;28;20058;-42
2023/12/20 06:07:50;;;;;;;4.82;2.05;;;;;;;6.49;78.83;100371.19;4963146;28;20066;-46
2023/12/20 06:10:17;;;;;;;4.82;2.20;;;;;;;6.54;77.32;100371.28;4968746;28;20050;-49
2023/12/20 06:12:47;;;;;;;6.00;2.17;;;;;;;6.51;78.40;100373.78;4968359;28;20047;-44
2023/12/20 06:15:15;;;;;;;6.70;2.33;;;;;;;6.47;79.08;100374.56;4961688;28;20481;-50
2023/12/20 06:17:42;;;;;;;3.65;1.98;;;;;;;6.42;78.61;100388.22;4969391;28;20050;-50
2023/12/20 06:20:09;;;;;;;6.10;0.93;;;;;;;6.40;78.44;100384.75;4973404;28;20443;-45
2023/12/20 06:22:36;;;;;;;6.75;2.17;;;;;;;6.35;77.79;100385.50;4969989;28;20153;-47
2023/12/20 06:25:03;;;;;;;7.07;2.40;;;;;;;6.31;77.88;100389.72;4970556;28;20050;-49
2023/12/20 06:27:32;;;;;;;5.88;2.33;;;;;;;6.24;78.99;100393.88;4967804;28;20055;-45
2023/12/20 06:29:59;;;;;;;5.43;1.85;;;;;;;6.26;78.86;100391.34;4968069;28;20049;-41
2023/12/20 06:32:25;;;;;;;3.58;2.35;;;;;;;6.29;79.42;100391.41;4967601;28;20130;-42
2023/12/20 06:34:54;;;;;;;3.25;2.05;;;;;;;6.29;79.02;100379.38;4966005;28;20050;-46
2023/12/20 06:37:21;;;;;;;4.38;2.47;;;;;;;6.33;79.15;100375.19;4969045;28;20043;-42
2023/12/20 06:39:47;;;;;;;8.93;2.25;;;;;;;6.38;79.15;100370.16;4970966;28;20050;-54
2023/12/20 06:42:14;;;;;;;5.72;2.00;;;;;;;6.41;79.71;100376.19;4971174;28;20046;-52
2023/12/20 06:44:41;;;;;;;5.93;2.33;;;;;;;6.42;79.28;100362.50;4970162;28;20055;-50
2023/12/20 06:47:07;;;;;;;8.70;2.08;;;;;;;6.43;77.97;100359.06;4969890;28;20508;-49
2023/12/20 06:49:34;;;;;;;6.15;2.13;;;;;;;6.46;77.88;100362.56;4969040;28;20054;-52
2023/12/20 06:52:02;;;;;;;5.82;2.45;;;;;;;6.45;78.24;100360.84;4968744;28;20051;-46
2023/12/20 06:54:28;;;;;;;2.63;2.22;;;;;;;6.46;78.76;100371.16;4970332;28;20130;-47
2023/12/20 06:56:55;;;;;;;4.78;2.72;;;;;;;6.48;78.92;100371.19;4969763;28;20496;-48
2023/12/20 06:59:22;;;;;;;5.80;2.17;;;;;;;6.47;79.27;100375.44;4962322;28;20043;-50
2023/12/20 07:01:49;;;;;;;3.65;2.63;;;;;;;6.48;79.65;100391.78;4967692;28;20519;-51
2023/12/20 07:04:19;;;;;;;6.03;2.90;;;;;;;6.47;78.87;100379.72;4969160;28;20114;-45
2023/12/20 07:06:51;;;;;;;8.90;2.47;;;;;;;6.49;78.28;100388.34;4966263;28;20098;-48
2023/12/20 07:09:18;;;;;;;5.03;2.45;;;;;;;6.48;79.60;100396.91;4968208;28;20133;-48
2023/12/20 07:11:44;;;;;;;4.13;2.15;;;;;;;6.50;78.72;100390.09;4967444;28;20164;-49
2023/12/20 07:14:11;;;;;;;2.97;2.17;;;;;;;6.52;78.03;100388.41;4966169;28;20663;-49
2023/12/20 07:16:38;;;;;;;4.35;2.97;;;;;;;6.52;78.89;100389.28;4965762;28;20085;-45
2023/12/20 07:19:04;;;;;;;4.22;2.03;;;;;;;6.55;78.29;100388.47;4963506;28;20662;-46
2023/12/20 07:21:31;;;;;;;5.30;2.30;;;;;;;6.56;78.19;100387.63;4972432;28;20102;-45
2023/12/20 07:23:58;;;;;;;8.32;2.35;;;;;;;6.56;78.13;100390.22;4969777;28;20047;-47
2023/12/20 07:26:25;;;;;;;5.85;2.40;;;;;;;6.55;79.59;100391.03;4967332;28;20054;-48
2023/12/20 07:28:51;;;;;;;6.00;2.65;;;;;;;6.57;78.34;100391.94;4969246;28;20062;-49
2023/12/20 07:31:18;;;;;;;3.15;0.60;;;;;;;6.57;79.32;100402.22;4969440;28;20447;-53
2023/12/20 07:33:45;;;;;;;5.22;2.33;;;;;;;6.58;79.71;100383.38;4968962;28;20046;-47
2023/12/20 07:36:12;;;;;;;8.18;2.00;;;;;;;6.60;79.86;100386.84;4968025;28;20093;-46
2023/12/20 07:38:41;;;;;;;2.78;1.73;;;;;;;6.57;79.89;100386.78;4965020;28;20053;-44
2023/12/20 07:41:10;;;;;;;6.00;2.05;;;;;;;6.58;79.73;100388.53;4960838;28;20508;-45
2023/12/20 07:43:38;;;;;;;3.70;2.15;;;;;;;6.58;79.59;100400.53;4962429;28;20509;-49
2023/12/20 07:46:06;;;;;;;3.63;2.42;;;;;;;6.58;78.68;100398.81;4964543;28;20047;-43
2023/12/20 07:48:35;;;;;;;3.00;2.50;;;;;;;6.55;78.78;100398.75;4959041;28;20121;-47
2023/12/20 07:51:03;;;;;;;5.80;2.70;;;;;;;6.52;78.47;100393.56;4952838;28;20043;-47
2023/12/20 07:53:30;;;;;;;3.58;2.28;;;;;;;6.51;79.16;100407.25;4956911;28;20054;-43
2023/12/20 07:55:58;;;;;;;4.60;2.28;;;;;;;6.45;79.22;100408.00;4961888;28;20042;-46
2023/12/20 07:58:25;;;;;;;7.45;2.17;;;;;;;6.42;78.56;100408.81;4958710;28;20050;-50
2023/12/20 08:01:11;;;;;;;3.42;2.47;;;;;;;6.41;80.14;100401.94;4955485;28;20515;-48
2023/12/20 08:03:38;;;;;;;4.93;2.92;;;;;;;6.46;78.82;100402.03;4960097;28;20694;-46
2023/12/20 08:06:05;;;;;;;5.55;2.58;;;;;;;6.49;80.59;100399.50;4954117;28;20058;-46
2023/12/20 08:08:32;;;;;;;2.30;2.00;;;;;;;6.54;79.02;100397.03;4961514;28;20078;-50
2023/12/20 08:11:00;;;;;;;6.15;2.05;;;;;;;6.58;78.92;100409.09;4966756;28;20047;-51
2023/12/20 08:13:27;;;;;;;3.80;2.40;;;;;;;6.58;79.62;100398.81;4961572;28;20042;-51
2023/12/20 08:15:55;;;;;;;5.95;2.08;;;;;;;6.62;79.85;100405.75;4957301;28;20039;-46
2023/12/20 08:18:23;;;;;;;5.05;2.72;;;;;;;6.65;79.48;100390.38;4956862;28;20043;-47
2023/12/20 08:20:52;;;;;;;3.53;0.60;;;;;;;6.68;80.27;100399.84;4960216;28;20408;-49
2023/12/20 08:23:20;;;;;;;6.03;2.55;;;;;;;6.71;79.38;100391.31;4956822;28;20505;-47
2023/12/20 08:25:50;;;;;;;4.35;2.15;;;;;;;6.77;80.40;100402.63;4966546;28;20648;-48
2023/12/20 08:28:17;;;;;;;6.18;2.15;;;;;;;6.79;79.69;100400.09;4961907;28;20067;-42
2023/12/20 08:30:44;;;;;;;8.82;2.40;;;;;;;6.85;78.81;100402.75;4961016;28;20070;-47
2023/12/20 08:33:12;;;;;;;6.53;1.98;;;;;;;6.86;79.89;100381.31;4958608;28;20062;-42
2023/12/20 08:35:40;;;;;;;3.45;2.25;;;;;;;6.96;80.18;100387.50;4963195;28;20067;-46
2023/12/20 08:38:07;;;;;;;4.60;0.65;;;;;;;7.06;80.14;100384.22;4965239;28;20526;-49
2023/12/20 08:40:34;;;;;;;2.55;2.10;;;;;;;7.14;80.02;100384.38;4972256;28;20050;-45
2023/12/20 08:43:01;;;;;;;6.07;2.70;;;;;;;7.15;80.01;100386.09;4969632;28;20046;-46
2023/12/20 08:45:28;;;;;;;4.18;2.00;;;;;;;7.19;79.80;100382.75;4966587;28;20105;-51
2023/12/20 08:47:54;;;;;;;2.50;2.13;;;;;;;7.24;79.02;100389.66;4973073;28;20051;-41
2023/12/20 08:50:25;;;;;;;3.92;2.00;;;;;;;7.23;78.95;100377.63;4973038;28;20039;-51
2023/12/20 08:52:52;;;;;;;4.05;2.35;;;;;;;7.24;78.98;100374.22;4968299;28;20050;-46
2023/12/20 08:55:19;;;;;;;3.35;1.80;;;;;;;7.23;79.53;100380.22;4970817;28;20055;-46
2023/12/20 08:57:46;;;;;;;7.13;2.35;;;;;;;7.27;79.60;100387.16;4970601;28;20049;-48
2023/12/20 09:00:16;;;;;;;2.70;2.50;;;;;;;7.29;79.56;100398.34;4970314;28;20089;-50
2023/12/20 09:02:42;;;;;;;2.20;1.95;;;;;;;7.52;78.88;100390.09;4965026;28;20044;-49
2023/12/20 09:05:09;;;;;;;2.45;1.80;;;;;;;7.72;79.01;100399.03;4971239;28;20508;-51
2023/12/20 09:07:37;;;;;;;2.58;0.40;;;;;;;7.73;79.14;100405.03;4970626;28;20428;-42
2023/12/20 09:10:04;;;;;;;4.05;2.80;;;;;;;7.81;78.35;100392.25;4968690;28;20047;-46
2023/12/20 09:12:31;;;;;;;5.25;2.15;;;;;;;7.82;77.87;100409.47;4968444;28;20051;-46
2023/12/20 09:14:58;;;;;;;2.67;2.28;;;;;;;7.75;78.40;100407.63;4971533;28;20527;-42
2023/12/20 09:17:24;;;;;;;3.05;1.73;;;;;;;7.67;78.92;100408.38;4970705;28;20047;-48
2023/12/20 09:19:55;;;;;;;6.75;2.25;;;;;;;7.64;77.69;100394.59;4972217;28;20070;-52
2023/12/20 09:22:24;;;;;;;2.90;2.30;;;;;;;7.62;78.11;100402.31;4973243;28;20054;-46
2023/12/20 09:24:51;;;;;;;2.08;1.88;;;;;;;7.59;77.93;100397.09;4971162;28;20058;-52
2023/12/20 09:27:17;;;;;;;4.72;3.15;;;;;;;7.61;79.11;100390.25;4967338;28;20057;-50
2023/12/20 09:29:44;;;;;;;5.38;2.40;;;;;;;7.62;77.98;100392.00;4971953;28;20504;-44
2023/12/20 09:32:11;;;;;;;5.05;2.20;;;;;;;7.58;79.10;100393.66;4971710;28;20048;-47
2023/12/20 09:34:38;;;;;;;4.38;2.35;;;;;;;7.57;78.61;100383.34;4967100;28;20046;-50
2023/12/20 09:37:05;;;;;;;8.63;2.35;;;;;;;7.61;78.81;100379.06;4970515;28;20042;-47
2023/12/20 09:39:32;;;;;;;5.53;2.38;;;;;;;7.62;78.81;100381.69;4971984;28;20058;-49
2023/12/20 09:42:02;;;;;;;2.78;2.08;;;;;;;7.64;79.13;100382.59;4964168;28;20042;-49
2023/12/20 09:44:31;;;;;;;3.78;2.28;;;;;;;7.62;79.03;100389.41;4971165;28;20043;-54
2023/12/20 09:47:01;;;;;;;3.08;2.05;;;;;;;7.65;78.45;100379.16;4969647;28;20047;-45
2023/12/20 09:49:29;;;;;;;3.63;1.80;;;;;;;7.67;79.19;100394.66;4972097;28;20138;-51
2023/12/20 09:51:56;;;;;;;2.88;2.08;;;;;;;7.66;78.49;100388.59;4971701;28;20046;-49
2023/12/20 09:54:25;;;;;;;5.78;2.53;;;;;;;7.64;79.09;100392.91;4970522;28;20068;-43
2023/12/20 09:56:51;;;;;;;3.33;2.25;;;;;;;7.70;78.78;100387.81;4970748;28;20050;-48
2023/12/20 09:59:18;;;;;;;4.68;2.33;;;;;;;7.73;78.95;100386.97;4970531;28;20680;-47
2023/12/20 10:01:45;;;;;;;4.35;2.53;;;;;;;7.71;79.40;100392.13;4969933;28;20126;-50
2023/12/20 10:04:13;;;;;;;2.38;1.95;;;;;;;7.77;79.03;100387.91;4969556;28;20066;-47
2023/12/20 10:06:56;;;;;;;6.13;2.80;;;;;;;7.76;78.57;100379.28;4968255;28;20145;-43
2023/12/20 10:09:28;;;;;;;2.75;2.25;;;;;;;7.78;78.41;100366.44;4971257;28;20066;-45
2023/12/20 10:11:57;;;;;;;7.75;2.95;;;;;;;7.80;78.92;100365.59;4970405;28;20043;-53
2023/12/20 10:14:24;;;;;;;3.75;2.20;;;;;;;7.80;79.20;100369.91;4965457;28;20078;-50
2023/12/20 10:16:50;;;;;;;4.57;2.45;;;;;;;7.84;78.73;100367.38;4968881;28;20052;-46
2023/12/20 10:19:18;;;;;;;4.38;2.15;;;;;;;7.84;79.08;100366.53;4971249;28;20047;-43
2023/12/20 10:21:45;;;;;;;4.70;0.90;;;;;;;7.92;78.37;100357.16;4969915;28;20050;-52
2023/12/20 10:24:17;;;;;;;4.38;1.65;;;;;;;7.94;78.47;100362.34;4968756;28;20066;-44
2023/12/20 10:26:44;;;;;;;6.25;2.45;;;;;;;8.05;78.45;100365.06;4966876;28;20059;-48
2023/12/20 10:29:12;;;;;;;7.00;2.30;;;;;;;8.14;78.78;100364.31;4965364;28;20940;-44
2023/12/20 10:31:38;;;;;;;2.70;1.90;;;;;;;8.21;78.77;100359.22;4972172;28;20057;-51
2023/12/20 10:34:05;;;;;;;3.20;2.45;;;;;;;8.22;77.99;100348.09;4960871;28;20065;-47
2023/12/20 10:36:36;;;;;;;3.90;2.22;;;;;;;8.26;78.34;100363.59;4966911;28;20051;-48
2023/12/20 10:39:05;;;;;;;3.45;2.50;;;;;;;8.27;78.32;100352.44;4964247;28;20084;-50
2023/12/20 10:41:32;;;;;;;3.00;1.85;;;;;;;8.29;77.75;100363.63;4967282;28;20051;-44
2023/12/20 10:44:01;;;;;;;2.67;1.58;;;;;;;8.28;78.10;100357.59;4964563;28;20073;-45
2023/12/20 10:46:29;;;;;;;5.95;0.75;;;;;;;8.25;78.49;100352.41;4969532;28;20078;-49
2023/12/20 10:48:57;;;;;;;8.27;1.00;;;;;;;8.33;78.20;100347.31;4969328;28;20381;-49
2023/12/20 10:51:26;;;;;;;4.40;0.63;;;;;;;8.30;77.90;100324.94;4970568;28;20133;-50
2023/12/20 10:53:56;;;;;;;2.92;2.28;;;;;;;8.35;78.37;100323.25;4971101;28;20055;-49
2023/12/20 10:56:23;;;;;;;2.75;2.20;;;;;;;8.31;78.53;100310.31;4979085;28;20051;-45
2023/12/20 10:58:50;;;;;;;3.63;2.33;;;;;;;8.37;78.21;100300.06;4966913;28;20130;-47
2023/12/20 11:01:20;;;;;;;3.28;1.85;;;;;;;8.41;78.36;100285.47;4968846;28;20046;-49
2023/12/20 11:03:50;;;;;;;3.13;1.90;;;;;;;8.51;78.24;100271.78;4969889;28;20440;-50
2023/12/20 11:09:09;;;;;;;3.38;1.13;;;;;;;8.69;78.01;100280.59;5081771;28;20740;-45
2023/12/20 11:14:24;;;;;;;2.88;2.30;;;;;;;8.90;78.17;100263.53;5014347;28;20392;-50
2023/12/20 11:16:51;;;;;;;3.22;1.15;;;;;;;8.94;77.93;100261.00;4989714;28;20499;-51
2023/12/20 11:19:21;;;;;;;4.47;2.08;;;;;;;8.91;77.57;100253.22;4991537;28;20051;-51
2023/12/20 11:21:48;;;;;;;2.13;1.73;;;;;;;8.91;77.31;100260.97;4991153;28;20049;-49
2023/12/20 11:24:16;;;;;;;3.17;2.28;;;;;;;9.02;77.41;100258.44;4992194;28;20054;-46
2023/12/20 11:26:48;;;;;;;2.17;1.98;;;;;;;9.03;77.17;100262.78;4988546;28;20046;-50
2023/12/20 11:29:35;;;;;;;4.57;1.83;;;;;;;9.04;77.36;100258.47;4986742;28;20496;-47
2023/12/20 11:32:23;;;;;;;1.75;1.65;;;;;;;9.03;77.14;100241.25;5010424;28;20050;-48
2023/12/20 11:34:53;;;;;;;8.57;2.25;;;;;;;9.10;77.14;100230.09;5023158;28;20054;-44
2023/12/20 11:37:20;;;;;;;2.10;1.92;;;;;;;9.11;77.10;100230.13;4991867;28;20066;-45
2023/12/20 11:39:56;;;;;;;3.10;2.22;;;;;;;9.15;77.30;100230.97;4987271;28;20412;-50
2023/12/20 11:42:23;;;;;;;2.55;2.03;;;;;;;9.23;77.52;100233.63;4984889;28;20042;-47